Terminal Aerodrome Forecast
Issued by NWS Cleveland, OH

Home | Current Version | Previous Version | Text Only | Print | Product List | Glossary On
Versions: 1 2 3 4 5 6 7 8 9 10 11 12 13
615
FTUS41 KCLE 201136
TAFYNG
TAF
KYNG 201136Z 2012/2112 21015KT P6SM BKN250
     FM201800 24012KT P6SM BKN250
     FM210000 22010KT P6SM OVC020
     FM210600 20008KT 5SM BR OVC012
     FM210900 20006KT 3SM -DZ BR OVC008=

USA.gov is the U.S. government's official web portal to all federal, state and local government web resources and services.